createdAt,value
2022-12-09T00:01:07.116Z,53.70
2022-12-09T00:03:55.970Z,48.33
2022-12-09T00:06:43.294Z,52.60
2022-12-09T00:09:30.348Z,53.33
2022-12-09T00:12:17.549Z,55.43
2022-12-09T00:15:05.039Z,53.77
2022-12-09T00:17:51.993Z,55.90
2022-12-09T00:20:39.092Z,55.57
2022-12-09T00:23:26.329Z,46.47
2022-12-09T00:26:14.448Z,49.53
2022-12-09T00:29:02.196Z,44.30
2022-12-09T00:31:49.602Z,47.10
2022-12-09T00:34:36.785Z,49.93
2022-12-09T00:37:23.764Z,45.57
2022-12-09T00:40:11.839Z,50.73
2022-12-09T00:42:59.008Z,51.00
2022-12-09T00:45:45.959Z,51.70
2022-12-09T00:48:38.636Z,47.93
2022-12-09T00:51:26.084Z,51.00
2022-12-09T00:54:13.253Z,51.73
2022-12-09T00:57:00.238Z,57.93
2022-12-09T00:59:47.252Z,55.50
2022-12-09T01:02:35.578Z,51.93
2022-12-09T01:05:22.770Z,57.10
2022-12-09T01:08:11.133Z,55.50
2022-12-09T01:10:58.407Z,71.50
2022-12-09T01:13:45.718Z,65.97
2022-12-09T01:16:34.088Z,69.03
2022-12-09T01:19:21.334Z,62.70
2022-12-09T01:22:08.420Z,62.00
2022-12-09T01:24:55.691Z,61.53
2022-12-09T01:27:42.740Z,62.47
2022-12-09T01:30:29.693Z,59.50
2022-12-09T01:33:16.799Z,59.00
2022-12-09T01:36:09.086Z,59.30
2022-12-09T01:38:58.973Z,62.83
2022-12-09T01:41:46.009Z,61.47
2022-12-09T01:44:34.508Z,69.40
2022-12-09T01:47:23.168Z,60.17
2022-12-09T01:50:10.962Z,65.17
2022-12-09T01:52:58.641Z,67.57
2022-12-09T01:55:46.432Z,71.20
2022-12-09T01:58:33.709Z,80.07
2022-12-09T02:01:21.811Z,71.83
2022-12-09T02:04:09.149Z,73.23
2022-12-09T02:07:00.319Z,63.17
2022-12-09T02:09:47.811Z,72.93
2022-12-09T02:12:52.415Z,70.10
2022-12-09T02:15:57.878Z,65.80
2022-12-09T02:18:50.940Z,68.73
2022-12-09T02:21:46.734Z,68.47
2022-12-09T02:24:51.683Z,70.03
2022-12-09T02:27:57.612Z,61.00
2022-12-09T02:31:04.508Z,57.27
2022-12-09T02:34:00.528Z,78.30
2022-12-09T02:37:22.692Z,71.23
2022-12-09T02:40:18.558Z,74.03
2022-12-09T02:43:07.980Z,69.17
2022-12-09T02:45:57.943Z,75.33
2022-12-09T02:48:52.426Z,75.47
2022-12-09T02:51:42.561Z,74.67
2022-12-09T02:54:32.651Z,78.17
2022-12-09T02:57:26.331Z,73.40
2022-12-09T03:00:15.737Z,66.33
2022-12-09T03:03:05.603Z,69.83
2022-12-09T03:06:08.879Z,76.87
2022-12-09T03:09:09.643Z,66.50
2022-12-09T03:12:02.097Z,76.57
2022-12-09T03:14:53.213Z,67.93
2022-12-09T03:17:43.605Z,67.53
2022-12-09T03:20:33.393Z,73.87
2022-12-09T03:23:25.091Z,63.80
2022-12-09T03:26:15.815Z,65.93
2022-12-09T03:29:07.043Z,71.23
2022-12-09T03:31:56.266Z,61.83
2022-12-09T03:34:46.669Z,74.77
2022-12-09T03:37:36.410Z,72.17
2022-12-09T03:40:27.802Z,68.47
2022-12-09T03:43:22.864Z,75.63
2022-12-09T03:46:10.035Z,66.07
2022-12-09T03:48:58.528Z,61.00
2022-12-09T03:52:01.674Z,62.23
2022-12-09T03:54:56.950Z,66.53
2022-12-09T03:57:46.371Z,79.97
2022-12-09T04:00:38.114Z,67.03
2022-12-09T04:03:26.530Z,77.27
2022-12-09T04:06:15.178Z,67.13
2022-12-09T04:09:04.423Z,70.83
2022-12-09T04:11:51.828Z,77.03
2022-12-09T04:14:39.675Z,70.27
2022-12-09T04:17:27.216Z,64.83
2022-12-09T04:20:14.852Z,83.23
2022-12-09T04:23:02.054Z,66.23
2022-12-09T04:25:49.363Z,81.60
2022-12-09T04:28:36.599Z,76.83
2022-12-09T04:31:23.708Z,66.40
2022-12-09T04:34:10.885Z,74.10
2022-12-09T04:36:58.008Z,75.23
2022-12-09T04:39:45.380Z,82.53
2022-12-09T04:42:32.681Z,81.47
2022-12-09T04:45:19.648Z,75.70
2022-12-09T04:48:07.035Z,86.93
2022-12-09T04:50:54.200Z,93.03
2022-12-09T04:53:41.945Z,83.83
2022-12-09T04:56:28.989Z,82.03
2022-12-09T04:59:16.218Z,90.50
2022-12-09T05:02:03.604Z,89.17
2022-12-09T05:04:50.893Z,86.97
2022-12-09T05:07:38.160Z,88.00
2022-12-09T05:10:25.338Z,77.27
2022-12-09T05:13:13.031Z,76.50
2022-12-09T05:16:15.615Z,74.80
2022-12-09T05:19:04.048Z,81.03
2022-12-09T05:21:51.373Z,76.50
2022-12-09T05:24:38.866Z,75.40
2022-12-09T05:27:26.060Z,84.60
2022-12-09T05:30:14.168Z,79.10
2022-12-09T05:33:04.990Z,74.93
2022-12-09T05:35:53.509Z,76.90
2022-12-09T05:38:41.272Z,80.43
2022-12-09T05:41:28.581Z,69.03
2022-12-09T05:44:16.446Z,77.57
2022-12-09T05:47:03.847Z,65.23
2022-12-09T05:49:51.136Z,77.23
2022-12-09T05:52:38.499Z,65.80
2022-12-09T05:55:25.837Z,65.87
2022-12-09T05:58:13.215Z,67.80
2022-12-09T06:01:07.989Z,68.80
2022-12-09T06:03:55.810Z,68.87
2022-12-09T06:06:44.108Z,60.93
2022-12-09T06:09:31.597Z,64.63
2022-12-09T06:12:18.781Z,70.77
2022-12-09T06:15:10.382Z,58.17
2022-12-09T06:17:58.200Z,69.37
2022-12-09T06:20:45.532Z,62.07
2022-12-09T06:23:32.692Z,62.10
2022-12-09T06:26:22.294Z,63.23
2022-12-09T06:29:09.888Z,68.20
2022-12-09T06:31:57.126Z,60.47
2022-12-09T06:34:44.827Z,62.20
2022-12-09T06:37:32.873Z,59.23
2022-12-09T06:40:23.681Z,64.80
2022-12-09T06:43:11.798Z,69.33
2022-12-09T06:45:58.906Z,61.87
2022-12-09T06:48:47.070Z,68.37
2022-12-09T06:51:34.466Z,74.33
2022-12-09T06:54:21.818Z,60.40
2022-12-09T06:57:09.066Z,70.13
2022-12-09T06:59:56.324Z,64.53
2022-12-09T07:02:43.702Z,64.67
2022-12-09T07:05:32.360Z,66.23
2022-12-09T07:08:19.749Z,71.23
2022-12-09T07:11:07.340Z,63.23
2022-12-09T07:13:54.872Z,64.90
2022-12-09T07:16:43.119Z,64.60
2022-12-09T07:19:31.357Z,66.77
2022-12-09T07:22:18.537Z,75.60
2022-12-09T07:25:06.511Z,63.67
2022-12-09T07:27:54.089Z,66.37
2022-12-09T07:30:41.456Z,68.63
2022-12-09T07:33:29.635Z,71.37
2022-12-09T07:36:20.956Z,69.53
2022-12-09T07:39:12.703Z,63.37
2022-12-09T07:42:00.164Z,64.97
2022-12-09T07:44:49.707Z,70.90
2022-12-09T07:47:36.964Z,72.70
2022-12-09T07:50:24.670Z,70.83
2022-12-09T07:53:11.838Z,61.03
2022-12-09T07:56:07.308Z,70.40
2022-12-09T07:58:55.364Z,72.83
2022-12-09T08:01:42.963Z,80.60
2022-12-09T08:04:31.800Z,79.80
2022-12-09T08:07:19.274Z,69.10
2022-12-09T08:10:07.737Z,69.60
2022-12-09T08:12:55.330Z,66.00
2022-12-09T08:15:43.425Z,77.50
2022-12-09T08:18:31.090Z,68.07
2022-12-09T08:21:24.288Z,71.73
2022-12-09T08:24:12.798Z,70.43
2022-12-09T08:27:00.637Z,73.70
2022-12-09T08:29:48.299Z,73.00
2022-12-09T08:32:35.763Z,75.67
2022-12-09T08:35:23.036Z,77.03
2022-12-09T08:38:11.433Z,78.83
2022-12-09T08:40:59.048Z,78.87
2022-12-09T08:43:47.066Z,80.67
2022-12-09T08:46:35.569Z,88.17
2022-12-09T08:49:24.302Z,83.97
2022-12-09T08:52:12.168Z,91.57
2022-12-09T08:54:59.288Z,87.20
2022-12-09T08:57:46.492Z,109.50
2022-12-09T09:00:33.741Z,97.70
2022-12-09T09:03:21.016Z,105.13
2022-12-09T09:06:10.694Z,105.07
2022-12-09T09:09:00.162Z,95.00
2022-12-09T09:11:48.092Z,92.83
2022-12-09T09:14:35.708Z,85.33
2022-12-09T09:17:23.733Z,87.13
2022-12-09T09:20:11.440Z,71.17
2022-12-09T09:23:03.052Z,79.63
2022-12-09T09:25:51.665Z,77.73
2022-12-09T09:28:39.900Z,74.77
2022-12-09T09:31:27.552Z,78.67
2022-12-09T09:34:17.887Z,71.03
2022-12-09T09:37:05.032Z,72.33
2022-12-09T09:39:52.114Z,72.63
2022-12-09T09:42:47.957Z,66.17
2022-12-09T09:45:36.001Z,56.43
2022-12-09T09:48:27.407Z,62.70
2022-12-09T09:51:19.338Z,59.03
2022-12-09T09:54:13.193Z,58.57
2022-12-09T09:57:12.561Z,56.27
2022-12-09T10:00:22.882Z,55.57
2022-12-09T10:03:20.944Z,50.50
2022-12-09T10:06:29.078Z,53.30
2022-12-09T10:09:32.374Z,47.80
2022-12-09T10:12:38.119Z,46.40
2022-12-09T10:15:46.061Z,58.97
2022-12-09T10:18:40.646Z,52.73
2022-12-09T10:21:32.068Z,47.33
2022-12-09T10:24:23.198Z,43.23
2022-12-09T10:27:24.453Z,44.63
2022-12-09T10:30:15.699Z,43.77
2022-12-09T10:33:03.878Z,42.43
2022-12-09T10:35:51.279Z,43.87
2022-12-09T10:38:41.850Z,38.83
2022-12-09T10:42:03.892Z,39.17
2022-12-09T10:45:03.808Z,39.43
2022-12-09T10:47:53.064Z,39.97
2022-12-09T10:50:41.991Z,36.50
2022-12-09T10:53:31.159Z,34.10
2022-12-09T10:56:28.274Z,36.93
2022-12-09T10:59:31.559Z,38.07
2022-12-09T11:02:22.028Z,34.13
2022-12-09T11:05:28.657Z,36.00
2022-12-09T11:08:23.103Z,34.90
2022-12-09T11:11:10.494Z,29.13
2022-12-09T11:13:57.699Z,28.33
2022-12-09T11:16:45.698Z,31.43
2022-12-09T11:19:39.031Z,26.63
2022-12-09T11:22:41.864Z,32.10
2022-12-09T11:25:34.522Z,30.00
2022-12-09T11:28:26.157Z,27.90
2022-12-09T11:31:30.327Z,27.47
2022-12-09T11:34:26.232Z,26.40
2022-12-09T11:37:13.717Z,28.60
2022-12-09T11:40:01.081Z,31.20
2022-12-09T11:42:53.338Z,29.47
2022-12-09T11:45:40.965Z,30.77
2022-12-09T11:48:36.229Z,25.40
2022-12-09T11:51:30.501Z,26.90
2022-12-09T11:54:42.861Z,28.33
2022-12-09T11:57:41.449Z,24.93
2022-12-09T12:00:59.346Z,27.27
2022-12-09T12:03:53.945Z,23.30
2022-12-09T12:06:49.058Z,26.17
2022-12-09T12:09:42.803Z,24.50
2022-12-09T12:12:44.941Z,21.57
2022-12-09T12:15:52.455Z,22.77
2022-12-09T12:18:53.311Z,22.10
2022-12-09T12:21:55.897Z,24.77
2022-12-09T12:24:58.564Z,22.57
2022-12-09T12:28:00.630Z,24.63
2022-12-09T12:31:07.389Z,23.30
2022-12-09T12:34:25.254Z,22.43
2022-12-09T12:37:16.876Z,23.40
2022-12-09T12:40:12.722Z,23.80
2022-12-09T12:43:44.925Z,23.20
2022-12-09T12:46:58.932Z,21.17
2022-12-09T12:50:42.360Z,22.53
2022-12-09T12:53:35.998Z,22.33
2022-12-09T12:56:42.179Z,26.07
2022-12-09T12:59:39.928Z,21.10
2022-12-09T13:02:41.570Z,21.83
2022-12-09T13:05:35.783Z,22.03
2022-12-09T13:09:01.327Z,24.40
2022-12-09T13:11:55.803Z,20.73
2022-12-09T13:14:52.916Z,21.93
2022-12-09T13:17:40.817Z,22.47
2022-12-09T13:20:35.471Z,23.50
2022-12-09T13:23:40.344Z,24.07
2022-12-09T13:26:50.153Z,24.97
2022-12-09T13:29:49.509Z,23.67
2022-12-09T13:33:08.618Z,26.03
2022-12-09T13:36:06.721Z,24.20
2022-12-09T13:38:53.882Z,26.17
2022-12-09T13:42:11.356Z,24.37
2022-12-09T13:45:06.711Z,23.73
2022-12-09T13:47:55.264Z,24.63
2022-12-09T13:51:00.435Z,21.10
2022-12-09T13:53:59.304Z,19.40
2022-12-09T13:57:09.272Z,20.83
2022-12-09T14:00:01.939Z,20.13
2022-12-09T14:03:02.220Z,20.20
2022-12-09T14:05:52.055Z,19.97
2022-12-09T14:08:45.944Z,19.83
2022-12-09T14:11:43.202Z,18.00
2022-12-09T14:14:30.112Z,17.27
2022-12-09T14:17:37.066Z,19.07
2022-12-09T14:20:30.114Z,21.13
2022-12-09T14:23:18.516Z,23.77
2022-12-09T14:26:05.918Z,23.90
2022-12-09T14:28:54.759Z,24.37
2022-12-09T14:32:03.213Z,24.43
2022-12-09T14:35:03.835Z,25.30
2022-12-09T14:37:50.839Z,26.13
2022-12-09T14:40:53.710Z,21.90
2022-12-09T14:44:05.504Z,25.20
2022-12-09T14:47:13.630Z,25.63
2022-12-09T14:50:20.361Z,23.77
2022-12-09T14:53:21.344Z,24.23
2022-12-09T14:56:14.145Z,23.93
2022-12-09T14:59:07.715Z,26.70
2022-12-09T15:02:14.607Z,26.17
2022-12-09T15:05:03.193Z,27.83
2022-12-09T15:07:50.739Z,30.00
2022-12-09T15:10:38.401Z,28.63
2022-12-09T15:13:26.600Z,28.80
2022-12-09T15:16:19.997Z,31.53
2022-12-09T15:19:07.113Z,30.93
2022-12-09T15:21:56.205Z,33.07
2022-12-09T15:24:50.577Z,33.80
2022-12-09T15:27:38.136Z,32.63
2022-12-09T15:30:30.310Z,35.97
2022-12-09T15:33:19.868Z,33.40
2022-12-09T15:36:22.064Z,36.20
2022-12-09T15:39:13.920Z,35.27
2022-12-09T15:42:07.145Z,38.10
2022-12-09T15:45:09.836Z,34.53
2022-12-09T15:48:15.561Z,35.10
2022-12-09T15:51:07.373Z,38.23
2022-12-09T15:54:04.740Z,38.23
2022-12-09T15:56:57.571Z,34.47
2022-12-09T15:59:55.295Z,35.30
2022-12-09T16:02:45.465Z,36.63
2022-12-09T16:05:35.973Z,35.00
2022-12-09T16:08:43.050Z,40.50
2022-12-09T16:11:44.445Z,39.83
2022-12-09T16:14:46.469Z,45.97
2022-12-09T16:17:54.925Z,42.07
2022-12-09T16:20:46.134Z,38.97
2022-12-09T16:23:39.671Z,36.37
2022-12-09T16:29:39.706Z,40.50
2022-12-09T16:32:37.671Z,40.13
2022-12-09T16:35:48.701Z,43.23
2022-12-09T16:38:41.147Z,48.77
2022-12-09T16:41:54.997Z,49.13
2022-12-09T16:44:43.947Z,49.87
2022-12-09T16:47:35.237Z,50.63
2022-12-09T16:50:30.100Z,52.63
2022-12-09T16:53:24.305Z,54.43
2022-12-09T16:56:36.500Z,51.80
2022-12-09T16:59:37.252Z,57.17
2022-12-09T17:02:42.933Z,52.70
2022-12-09T17:05:31.662Z,47.63
2022-12-09T17:08:22.370Z,55.20
2022-12-09T17:11:11.289Z,52.23
2022-12-09T17:14:00.486Z,52.60
2022-12-09T17:16:48.975Z,51.00
2022-12-09T17:19:38.309Z,54.37
2022-12-09T17:22:28.588Z,50.00
2022-12-09T17:25:16.462Z,50.30
2022-12-09T17:28:10.193Z,50.37
2022-12-09T17:31:00.424Z,52.57
2022-12-09T17:33:51.041Z,49.13
2022-12-09T17:36:39.630Z,52.23
2022-12-09T17:39:28.409Z,56.30
2022-12-09T17:42:17.301Z,52.33
2022-12-09T17:45:05.508Z,57.30
2022-12-09T17:47:53.288Z,54.07
2022-12-09T17:50:40.365Z,52.87
2022-12-09T17:53:27.393Z,52.80
2022-12-09T17:56:18.270Z,56.07
2022-12-09T17:59:11.098Z,58.03
2022-12-09T18:01:58.348Z,58.63
2022-12-09T18:04:45.388Z,58.53
2022-12-09T18:07:33.254Z,57.47
2022-12-09T18:10:21.235Z,50.10
2022-12-09T18:13:11.668Z,53.47
2022-12-09T18:15:59.854Z,48.50
2022-12-09T18:18:48.529Z,48.53
2022-12-09T18:21:36.041Z,46.33
2022-12-09T18:24:24.081Z,48.47
2022-12-09T18:27:11.799Z,48.37
2022-12-09T18:30:03.818Z,46.00
2022-12-09T18:32:54.032Z,52.93
2022-12-09T18:35:45.080Z,53.13
2022-12-09T18:38:32.077Z,47.60
2022-12-09T18:41:22.268Z,60.03
2022-12-09T18:44:11.435Z,52.77
2022-12-09T18:46:58.686Z,71.60
2022-12-09T18:49:45.722Z,75.93
2022-12-09T18:52:32.715Z,115.23
2022-12-09T18:55:21.180Z,74.23
2022-12-09T18:58:09.972Z,89.03
2022-12-09T19:00:57.707Z,102.27
2022-12-09T19:03:46.043Z,123.83
2022-12-09T19:06:36.255Z,98.53
2022-12-09T19:09:26.813Z,108.10
2022-12-09T19:12:45.828Z,124.43
2022-12-09T19:15:22.121Z,96.73
2022-12-09T19:18:09.793Z,114.00
2022-12-09T19:20:56.987Z,61.10
2022-12-09T19:23:45.356Z,76.57
2022-12-09T19:26:34.742Z,165.77
2022-12-09T19:29:24.953Z,47.70
2022-12-09T19:32:36.488Z,38.23
2022-12-09T19:35:21.126Z,45.03
2022-12-09T19:38:09.001Z,49.47
2022-12-09T19:41:00.647Z,48.50
2022-12-09T19:43:48.679Z,67.30
2022-12-09T19:46:39.344Z,58.90
2022-12-09T19:49:27.360Z,58.43
2022-12-09T19:52:14.572Z,59.43
2022-12-09T19:55:01.669Z,48.13
2022-12-09T19:57:48.780Z,49.43
2022-12-09T20:00:41.398Z,45.70
2022-12-09T20:03:28.849Z,51.50
2022-12-09T20:06:19.248Z,60.10
2022-12-09T20:09:10.787Z,80.90
2022-12-09T20:12:02.891Z,72.57
2022-12-09T20:14:51.841Z,65.10
2022-12-09T20:17:38.944Z,70.17
2022-12-09T20:20:25.947Z,74.37
2022-12-09T20:23:13.281Z,65.30
2022-12-09T20:26:08.844Z,46.50
2022-12-09T20:28:57.176Z,56.27
2022-12-09T20:31:44.226Z,52.83
2022-12-09T20:34:31.375Z,64.33
2022-12-09T20:37:18.533Z,90.30
2022-12-09T20:40:06.640Z,39.87
2022-12-09T20:42:53.783Z,39.67
2022-12-09T20:45:40.978Z,36.70
2022-12-09T20:48:28.024Z,35.00
2022-12-09T20:51:22.385Z,38.67
2022-12-09T20:54:10.365Z,33.97
2022-12-09T20:56:57.308Z,34.00
2022-12-09T20:59:44.585Z,31.47
2022-12-09T21:02:38.838Z,36.73
2022-12-09T21:05:26.737Z,35.57
2022-12-09T21:08:14.227Z,37.33
2022-12-09T21:11:04.443Z,32.83
2022-12-09T21:13:57.036Z,32.63
2022-12-09T21:16:47.796Z,30.50
2022-12-09T21:19:35.202Z,32.63
2022-12-09T21:22:22.386Z,35.53
2022-12-09T21:25:10.314Z,29.80
2022-12-09T21:27:58.090Z,29.63
2022-12-09T21:30:45.442Z,28.97
2022-12-09T21:33:32.546Z,29.13
2022-12-09T21:36:23.996Z,30.50
2022-12-09T21:39:13.804Z,29.73
2022-12-09T21:42:01.098Z,31.23
2022-12-09T21:44:48.109Z,28.50
2022-12-09T21:47:35.177Z,29.47
2022-12-09T21:50:23.203Z,29.27
2022-12-09T21:53:10.434Z,31.70
2022-12-09T21:56:12.365Z,29.17
2022-12-09T21:59:02.157Z,33.03
2022-12-09T22:02:01.785Z,30.73
2022-12-09T22:07:56.274Z,28.03
2022-12-09T22:10:47.051Z,32.10
2022-12-09T22:13:39.744Z,35.57
2022-12-09T22:16:42.156Z,28.87
2022-12-09T22:19:31.546Z,30.73
2022-12-09T22:22:33.718Z,35.00
2022-12-09T22:25:25.782Z,37.90
2022-12-09T22:28:15.368Z,38.20
2022-12-09T22:31:11.287Z,35.60
2022-12-09T22:34:22.697Z,37.17
2022-12-09T22:37:43.106Z,40.30
2022-12-09T22:40:33.525Z,38.20
2022-12-09T22:43:27.637Z,36.80
2022-12-09T22:46:25.819Z,36.23
2022-12-09T22:49:19.181Z,40.60
2022-12-09T22:55:15.239Z,42.40
2022-12-09T22:58:06.341Z,46.40
2022-12-09T23:00:57.930Z,41.43
2022-12-09T23:03:58.279Z,42.77
2022-12-09T23:06:54.071Z,39.40
2022-12-09T23:09:44.985Z,37.87
2022-12-09T23:12:41.251Z,42.27
2022-12-09T23:15:31.471Z,38.13
2022-12-09T23:18:21.144Z,43.60
2022-12-09T23:21:16.212Z,40.90
2022-12-09T23:24:24.054Z,49.73
2022-12-09T23:27:21.578Z,45.23
2022-12-09T23:30:22.765Z,50.57
2022-12-09T23:33:12.902Z,47.57
2022-12-09T23:36:37.149Z,46.80
2022-12-09T23:39:31.905Z,45.03
2022-12-09T23:42:33.962Z,44.97
2022-12-09T23:45:25.972Z,49.07
2022-12-09T23:48:26.668Z,53.10
2022-12-09T23:51:22.868Z,58.47
2022-12-09T23:54:17.092Z,57.27
2022-12-09T23:57:10.577Z,51.90
